Pagina principale
METAR-TAF:

METAR-TAF

Aeroporti :

Contea di Ocean, New Jersey, Stati Uniti

latitudine: 39-55-39N, longitudine: 074-17-33W, altezza: 25 m

Osservazione

Il bollettino è stato emesso 1 ora e 1 minuti fa, alle 06:56 UTC
Vento 4 kt da ovest/nord-ovest
Temperature 14°C
Umidità 88%
Pressione 1018 hPa
Visibilità: 16.1 km
Cielo sereno

METAR: KMJX 240656Z AUTO 30004KT 10SM CLR 14/12 A3005 RMK AO2 SLP181 T01390122

Ora: 03:57 (07:57 UTC)


TAF: mancante

Osservazioni e previsioni meteorologiche di più di 4000 aeroporti (messaggi METAR e TAF).

Le stazioni disponibili sono rappresentate dai dischi gialli e rossi sulla carta.

Puntare il mouse per vedere il nome della stazione.

Clicca sopra per visualizzare le osservazioni e previsioni meteorologiche.

Per cambiare la mappa : fare clic sui pulsanti verdi con una croce nera per ingrandire, il pulsante verde con un trattino per diminuire, o sulla freccia verde per le mappe adiacenti.


METAR-TAF: